sensor_id;sensor_type;location;lat;lon;timestamp;P1;durP1;ratioP1;P2;durP2;ratioP2
2680;SDS011;1350;42.134;24.708;2022-11-18T00:00:45;86.28;;;41.05;;
2680;SDS011;1350;42.134;24.708;2022-11-18T00:03:12;84.15;;;41.97;;
2680;SDS011;1350;42.134;24.708;2022-11-18T00:05:39;62.28;;;38.60;;
2680;SDS011;1350;42.134;24.708;2022-11-18T00:08:06;80.63;;;41.00;;
2680;SDS011;1350;42.134;24.708;2022-11-18T00:10:37;72.13;;;41.60;;
2680;SDS011;1350;42.134;24.708;2022-11-18T00:13:05;129.73;;;43.33;;
2680;SDS011;1350;42.134;24.708;2022-11-18T00:15:58;138.60;;;52.80;;
2680;SDS011;1350;42.134;24.708;2022-11-18T00:18:25;244.63;;;54.67;;
2680;SDS011;1350;42.134;24.708;2022-11-18T00:20:52;90.88;;;42.53;;
2680;SDS011;1350;42.134;24.708;2022-11-18T00:23:19;122.55;;;46.03;;
2680;SDS011;1350;42.134;24.708;2022-11-18T00:25:45;262.88;;;53.58;;
2680;SDS011;1350;42.134;24.708;2022-11-18T00:28:13;132.45;;;48.90;;
2680;SDS011;1350;42.134;24.708;2022-11-18T00:30:40;216.45;;;52.00;;
2680;SDS011;1350;42.134;24.708;2022-11-18T00:33:07;70.50;;;41.55;;
2680;SDS011;1350;42.134;24.708;2022-11-18T00:35:34;100.22;;;45.58;;
2680;SDS011;1350;42.134;24.708;2022-11-18T00:38:00;77.50;;;41.05;;
2680;SDS011;1350;42.134;24.708;2022-11-18T00:40:27;89.85;;;40.85;;
2680;SDS011;1350;42.134;24.708;2022-11-18T00:42:54;85.38;;;40.70;;
2680;SDS011;1350;42.134;24.708;2022-11-18T00:45:21;81.75;;;42.15;;
2680;SDS011;1350;42.134;24.708;2022-11-18T00:47:48;79.57;;;39.28;;
2680;SDS011;1350;42.134;24.708;2022-11-18T00:50:15;87.53;;;41.30;;
2680;SDS011;1350;42.134;24.708;2022-11-18T00:52:42;110.22;;;41.47;;
2680;SDS011;1350;42.134;24.708;2022-11-18T00:55:09;55.42;;;36.22;;
2680;SDS011;1350;42.134;24.708;2022-11-18T00:57:35;76.70;;;37.75;;
2680;SDS011;1350;42.134;24.708;2022-11-18T01:00:02;54.28;;;35.03;;
2680;SDS011;1350;42.134;24.708;2022-11-18T01:04:59;53.22;;;38.38;;
2680;SDS011;1350;42.134;24.708;2022-11-18T01:07:26;57.33;;;40.53;;
2680;SDS011;1350;42.134;24.708;2022-11-18T01:09:53;54.10;;;36.55;;
2680;SDS011;1350;42.134;24.708;2022-11-18T01:12:20;70.60;;;39.10;;
2680;SDS011;1350;42.134;24.708;2022-11-18T01:15:04;83.85;;;40.35;;
2680;SDS011;1350;42.134;24.708;2022-11-18T01:17:33;85.05;;;41.30;;
2680;SDS011;1350;42.134;24.708;2022-11-18T01:19:59;77.15;;;39.80;;
2680;SDS011;1350;42.134;24.708;2022-11-18T01:22:26;59.75;;;40.13;;
2680;SDS011;1350;42.134;24.708;2022-11-18T01:24:53;103.00;;;41.30;;
2680;SDS011;1350;42.134;24.708;2022-11-18T01:27:19;75.07;;;38.42;;
2680;SDS011;1350;42.134;24.708;2022-11-18T01:29:46;151.68;;;41.45;;
2680;SDS011;1350;42.134;24.708;2022-11-18T01:32:13;94.15;;;38.50;;
2680;SDS011;1350;42.134;24.708;2022-11-18T01:34:41;82.47;;;35.60;;
2680;SDS011;1350;42.134;24.708;2022-11-18T01:37:08;87.18;;;37.70;;
2680;SDS011;1350;42.134;24.708;2022-11-18T01:39:35;190.73;;;45.70;;
2680;SDS011;1350;42.134;24.708;2022-11-18T01:42:02;145.13;;;42.63;;
2680;SDS011;1350;42.134;24.708;2022-11-18T01:47:30;71.00;;;33.42;;
2680;SDS011;1350;42.134;24.708;2022-11-18T01:50:02;52.45;;;31.40;;
2680;SDS011;1350;42.134;24.708;2022-11-18T01:52:30;97.55;;;37.45;;
2680;SDS011;1350;42.134;24.708;2022-11-18T01:55:01;138.07;;;40.55;;
2680;SDS011;1350;42.134;24.708;2022-11-18T01:57:32;93.82;;;37.85;;
2680;SDS011;1350;42.134;24.708;2022-11-18T02:00:00;97.70;;;38.78;;
2680;SDS011;1350;42.134;24.708;2022-11-18T02:02:29;81.57;;;36.47;;
2680;SDS011;1350;42.134;24.708;2022-11-18T02:04:58;48.20;;;33.70;;
2680;SDS011;1350;42.134;24.708;2022-11-18T02:07:29;122.13;;;40.75;;
2680;SDS011;1350;42.134;24.708;2022-11-18T02:09:57;89.50;;;38.17;;
2680;SDS011;1350;42.134;24.708;2022-11-18T02:12:29;54.55;;;34.90;;
2680;SDS011;1350;42.134;24.708;2022-11-18T02:14:56;64.90;;;34.40;;
2680;SDS011;1350;42.134;24.708;2022-11-18T02:17:26;72.13;;;34.50;;
2680;SDS011;1350;42.134;24.708;2022-11-18T02:20:12;141.88;;;41.60;;
2680;SDS011;1350;42.134;24.708;2022-11-18T02:26:19;110.70;;;35.58;;
2680;SDS011;1350;42.134;24.708;2022-11-18T02:29:15;93.90;;;34.45;;
2680;SDS011;1350;42.134;24.708;2022-11-18T02:31:47;88.22;;;32.17;;
2680;SDS011;1350;42.134;24.708;2022-11-18T02:34:23;90.55;;;32.80;;
2680;SDS011;1350;42.134;24.708;2022-11-18T02:36:59;90.95;;;32.08;;
2680;SDS011;1350;42.134;24.708;2022-11-18T02:39:32;50.95;;;28.42;;
2680;SDS011;1350;42.134;24.708;2022-11-18T02:42:03;106.47;;;34.15;;
2680;SDS011;1350;42.134;24.708;2022-11-18T02:44:37;126.18;;;34.10;;
2680;SDS011;1350;42.134;24.708;2022-11-18T02:47:08;146.77;;;42.17;;
2680;SDS011;1350;42.134;24.708;2022-11-18T02:49:39;84.72;;;33.85;;
2680;SDS011;1350;42.134;24.708;2022-11-18T02:52:09;135.85;;;37.72;;
2680;SDS011;1350;42.134;24.708;2022-11-18T02:54:39;93.28;;;32.83;;
2680;SDS011;1350;42.134;24.708;2022-11-18T02:57:09;87.90;;;36.10;;
2680;SDS011;1350;42.134;24.708;2022-11-18T02:59:40;70.65;;;32.22;;
2680;SDS011;1350;42.134;24.708;2022-11-18T03:02:08;163.80;;;36.10;;
2680;SDS011;1350;42.134;24.708;2022-11-18T03:04:40;71.53;;;31.60;;
2680;SDS011;1350;42.134;24.708;2022-11-18T03:07:09;109.68;;;37.60;;
2680;SDS011;1350;42.134;24.708;2022-11-18T03:09:41;189.73;;;43.75;;
2680;SDS011;1350;42.134;24.708;2022-11-18T03:12:13;68.38;;;34.33;;
2680;SDS011;1350;42.134;24.708;2022-11-18T03:14:49;128.45;;;38.08;;
2680;SDS011;1350;42.134;24.708;2022-11-18T03:17:22;57.13;;;28.88;;
2680;SDS011;1350;42.134;24.708;2022-11-18T03:20:02;143.57;;;37.55;;
2680;SDS011;1350;42.134;24.708;2022-11-18T03:22:36;47.25;;;31.17;;
2680;SDS011;1350;42.134;24.708;2022-11-18T03:25:07;90.93;;;33.42;;
2680;SDS011;1350;42.134;24.708;2022-11-18T03:27:38;146.50;;;39.47;;
2680;SDS011;1350;42.134;24.708;2022-11-18T03:30:13;92.60;;;34.95;;
2680;SDS011;1350;42.134;24.708;2022-11-18T03:32:44;67.28;;;30.10;;
2680;SDS011;1350;42.134;24.708;2022-11-18T03:35:17;45.25;;;29.50;;
2680;SDS011;1350;42.134;24.708;2022-11-18T03:37:47;46.70;;;30.35;;
2680;SDS011;1350;42.134;24.708;2022-11-18T03:40:17;40.10;;;28.63;;
2680;SDS011;1350;42.134;24.708;2022-11-18T03:42:48;45.05;;;27.55;;
2680;SDS011;1350;42.134;24.708;2022-11-18T03:45:21;52.83;;;29.38;;
2680;SDS011;1350;42.134;24.708;2022-11-18T03:47:51;137.88;;;44.80;;
2680;SDS011;1350;42.134;24.708;2022-11-18T03:50:24;82.63;;;36.38;;
2680;SDS011;1350;42.134;24.708;2022-11-18T03:52:54;99.25;;;32.38;;
2680;SDS011;1350;42.134;24.708;2022-11-18T03:55:23;76.72;;;30.20;;
2680;SDS011;1350;42.134;24.708;2022-11-18T03:57:53;44.58;;;30.92;;
2680;SDS011;1350;42.134;24.708;2022-11-18T04:00:28;86.13;;;36.75;;
2680;SDS011;1350;42.134;24.708;2022-11-18T04:02:59;215.30;;;46.72;;
2680;SDS011;1350;42.134;24.708;2022-11-18T04:05:26;42.58;;;28.33;;
2680;SDS011;1350;42.134;24.708;2022-11-18T04:07:57;64.55;;;31.35;;
2680;SDS011;1350;42.134;24.708;2022-11-18T04:10:28;98.07;;;36.28;;
2680;SDS011;1350;42.134;24.708;2022-11-18T04:13:00;98.50;;;38.03;;
2680;SDS011;1350;42.134;24.708;2022-11-18T04:15:31;88.50;;;33.97;;
2680;SDS011;1350;42.134;24.708;2022-11-18T04:18:01;78.18;;;32.60;;
2680;SDS011;1350;42.134;24.708;2022-11-18T04:20:28;93.13;;;34.40;;
2680;SDS011;1350;42.134;24.708;2022-11-18T04:22:57;149.10;;;35.88;;
2680;SDS011;1350;42.134;24.708;2022-11-18T04:25:23;77.40;;;34.65;;
2680;SDS011;1350;42.134;24.708;2022-11-18T04:27:51;100.75;;;36.45;;
2680;SDS011;1350;42.134;24.708;2022-11-18T04:30:18;89.68;;;31.42;;
2680;SDS011;1350;42.134;24.708;2022-11-18T04:32:46;91.13;;;34.85;;
2680;SDS011;1350;42.134;24.708;2022-11-18T04:35:13;120.60;;;36.85;;
2680;SDS011;1350;42.134;24.708;2022-11-18T04:37:40;217.85;;;43.03;;
2680;SDS011;1350;42.134;24.708;2022-11-18T04:40:07;91.72;;;35.10;;
2680;SDS011;1350;42.134;24.708;2022-11-18T04:42:35;157.60;;;37.53;;
2680;SDS011;1350;42.134;24.708;2022-11-18T04:45:02;131.70;;;40.67;;
2680;SDS011;1350;42.134;24.708;2022-11-18T04:47:29;60.83;;;36.38;;
2680;SDS011;1350;42.134;24.708;2022-11-18T04:49:57;56.58;;;35.83;;
2680;SDS011;1350;42.134;24.708;2022-11-18T04:52:24;65.80;;;35.95;;
2680;SDS011;1350;42.134;24.708;2022-11-18T04:54:51;50.70;;;34.75;;
2680;SDS011;1350;42.134;24.708;2022-11-18T04:57:17;58.35;;;38.08;;
2680;SDS011;1350;42.134;24.708;2022-11-18T04:59:44;62.72;;;36.40;;
2680;SDS011;1350;42.134;24.708;2022-11-18T05:02:11;64.32;;;36.40;;
2680;SDS011;1350;42.134;24.708;2022-11-18T05:04:38;68.65;;;34.83;;
2680;SDS011;1350;42.134;24.708;2022-11-18T05:07:06;100.13;;;41.20;;
2680;SDS011;1350;42.134;24.708;2022-11-18T05:09:33;57.65;;;34.95;;
2680;SDS011;1350;42.134;24.708;2022-11-18T05:12:00;53.10;;;35.58;;
2680;SDS011;1350;42.134;24.708;2022-11-18T05:14:44;47.15;;;33.08;;
2680;SDS011;1350;42.134;24.708;2022-11-18T05:17:11;57.90;;;35.75;;
2680;SDS011;1350;42.134;24.708;2022-11-18T05:19:38;84.30;;;38.90;;
2680;SDS011;1350;42.134;24.708;2022-11-18T05:22:06;72.60;;;37.80;;
2680;SDS011;1350;42.134;24.708;2022-11-18T05:24:33;63.53;;;37.92;;
2680;SDS011;1350;42.134;24.708;2022-11-18T05:27:00;68.25;;;43.03;;
2680;SDS011;1350;42.134;24.708;2022-11-18T05:29:27;54.78;;;34.67;;
2680;SDS011;1350;42.134;24.708;2022-11-18T05:31:53;59.08;;;36.75;;
2680;SDS011;1350;42.134;24.708;2022-11-18T05:34:20;69.47;;;37.88;;
2680;SDS011;1350;42.134;24.708;2022-11-18T05:36:47;56.45;;;34.72;;
2680;SDS011;1350;42.134;24.708;2022-11-18T05:39:15;73.45;;;36.33;;
2680;SDS011;1350;42.134;24.708;2022-11-18T05:41:42;50.75;;;33.85;;
2680;SDS011;1350;42.134;24.708;2022-11-18T05:44:27;67.95;;;35.30;;
2680;SDS011;1350;42.134;24.708;2022-11-18T05:46:53;81.82;;;38.03;;
2680;SDS011;1350;42.134;24.708;2022-11-18T05:49:20;71.07;;;35.88;;
2680;SDS011;1350;42.134;24.708;2022-11-18T05:51:47;91.55;;;48.22;;
2680;SDS011;1350;42.134;24.708;2022-11-18T05:54:15;67.28;;;45.90;;
2680;SDS011;1350;42.134;24.708;2022-11-18T05:56:44;231.20;;;172.07;;
2680;SDS011;1350;42.134;24.708;2022-11-18T05:59:11;261.90;;;182.23;;
2680;SDS011;1350;42.134;24.708;2022-11-18T06:01:40;95.90;;;50.17;;
2680;SDS011;1350;42.134;24.708;2022-11-18T06:04:12;85.85;;;44.10;;
2680;SDS011;1350;42.134;24.708;2022-11-18T06:06:42;63.13;;;36.72;;
2680;SDS011;1350;42.134;24.708;2022-11-18T06:09:12;72.57;;;34.92;;
2680;SDS011;1350;42.134;24.708;2022-11-18T06:11:45;63.80;;;34.13;;
2680;SDS011;1350;42.134;24.708;2022-11-18T06:14:18;51.33;;;33.53;;
2680;SDS011;1350;42.134;24.708;2022-11-18T06:16:48;79.35;;;34.05;;
2680;SDS011;1350;42.134;24.708;2022-11-18T06:19:18;56.25;;;32.97;;
2680;SDS011;1350;42.134;24.708;2022-11-18T06:21:46;52.22;;;28.40;;
2680;SDS011;1350;42.134;24.708;2022-11-18T06:24:13;43.85;;;28.30;;
2680;SDS011;1350;42.134;24.708;2022-11-18T06:26:42;56.95;;;29.95;;
2680;SDS011;1350;42.134;24.708;2022-11-18T06:29:11;129.82;;;38.80;;
2680;SDS011;1350;42.134;24.708;2022-11-18T06:31:41;105.85;;;35.53;;
2680;SDS011;1350;42.134;24.708;2022-11-18T06:34:08;98.93;;;33.60;;
2680;SDS011;1350;42.134;24.708;2022-11-18T06:36:34;129.43;;;37.08;;
2680;SDS011;1350;42.134;24.708;2022-11-18T06:39:02;135.77;;;37.05;;
2680;SDS011;1350;42.134;24.708;2022-11-18T06:41:29;295.17;;;44.45;;
2680;SDS011;1350;42.134;24.708;2022-11-18T06:43:58;101.75;;;35.40;;
2680;SDS011;1350;42.134;24.708;2022-11-18T06:46:25;80.10;;;33.28;;
2680;SDS011;1350;42.134;24.708;2022-11-18T06:49:21;65.55;;;34.63;;
2680;SDS011;1350;42.134;24.708;2022-11-18T06:51:48;58.45;;;31.98;;
2680;SDS011;1350;42.134;24.708;2022-11-18T06:54:15;65.60;;;32.65;;
2680;SDS011;1350;42.134;24.708;2022-11-18T06:56:42;67.47;;;31.33;;
2680;SDS011;1350;42.134;24.708;2022-11-18T06:59:10;78.95;;;33.75;;
2680;SDS011;1350;42.134;24.708;2022-11-18T07:01:37;83.43;;;34.92;;
2680;SDS011;1350;42.134;24.708;2022-11-18T07:04:05;70.50;;;33.03;;
2680;SDS011;1350;42.134;24.708;2022-11-18T07:06:33;59.30;;;32.38;;
2680;SDS011;1350;42.134;24.708;2022-11-18T07:09:01;47.05;;;30.33;;
2680;SDS011;1350;42.134;24.708;2022-11-18T07:11:30;61.88;;;27.40;;
2680;SDS011;1350;42.134;24.708;2022-11-18T07:13:56;81.13;;;27.75;;
2680;SDS011;1350;42.134;24.708;2022-11-18T07:16:25;43.25;;;25.65;;
2680;SDS011;1350;42.134;24.708;2022-11-18T07:18:52;49.30;;;29.20;;
2680;SDS011;1350;42.134;24.708;2022-11-18T07:21:20;49.47;;;32.72;;
2680;SDS011;1350;42.134;24.708;2022-11-18T07:23:49;67.32;;;29.77;;
2680;SDS011;1350;42.134;24.708;2022-11-18T07:26:16;52.55;;;28.75;;
2680;SDS011;1350;42.134;24.708;2022-11-18T07:28:43;62.55;;;26.42;;
2680;SDS011;1350;42.134;24.708;2022-11-18T07:31:10;59.35;;;26.80;;
2680;SDS011;1350;42.134;24.708;2022-11-18T07:33:40;51.08;;;25.85;;
2680;SDS011;1350;42.134;24.708;2022-11-18T07:36:08;48.67;;;26.48;;
2680;SDS011;1350;42.134;24.708;2022-11-18T07:38:36;69.15;;;28.05;;
2680;SDS011;1350;42.134;24.708;2022-11-18T07:41:04;62.83;;;27.00;;
2680;SDS011;1350;42.134;24.708;2022-11-18T07:43:32;43.70;;;24.55;;
2680;SDS011;1350;42.134;24.708;2022-11-18T07:46:07;55.22;;;25.55;;
2680;SDS011;1350;42.134;24.708;2022-11-18T07:48:35;47.58;;;26.70;;
2680;SDS011;1350;42.134;24.708;2022-11-18T07:51:03;48.05;;;25.55;;
2680;SDS011;1350;42.134;24.708;2022-11-18T07:53:31;46.83;;;26.08;;
2680;SDS011;1350;42.134;24.708;2022-11-18T07:55:58;43.67;;;27.52;;
2680;SDS011;1350;42.134;24.708;2022-11-18T07:58:25;46.13;;;25.92;;
2680;SDS011;1350;42.134;24.708;2022-11-18T08:00:52;48.80;;;26.98;;
2680;SDS011;1350;42.134;24.708;2022-11-18T08:03:23;45.78;;;26.23;;
2680;SDS011;1350;42.134;24.708;2022-11-18T08:05:50;43.47;;;25.50;;
2680;SDS011;1350;42.134;24.708;2022-11-18T08:08:18;49.38;;;28.33;;
2680;SDS011;1350;42.134;24.708;2022-11-18T08:10:45;54.17;;;27.60;;
2680;SDS011;1350;42.134;24.708;2022-11-18T08:13:12;48.13;;;28.52;;
2680;SDS011;1350;42.134;24.708;2022-11-18T08:15:39;48.30;;;29.13;;
2680;SDS011;1350;42.134;24.708;2022-11-18T08:18:06;53.35;;;28.42;;
2680;SDS011;1350;42.134;24.708;2022-11-18T08:20:32;44.15;;;27.80;;
2680;SDS011;1350;42.134;24.708;2022-11-18T08:22:59;60.42;;;33.60;;
2680;SDS011;1350;42.134;24.708;2022-11-18T08:25:27;60.30;;;34.28;;
2680;SDS011;1350;42.134;24.708;2022-11-18T08:27:54;50.95;;;33.13;;
2680;SDS011;1350;42.134;24.708;2022-11-18T08:30:21;61.83;;;34.33;;
2680;SDS011;1350;42.134;24.708;2022-11-18T08:32:48;177.10;;;129.65;;
2680;SDS011;1350;42.134;24.708;2022-11-18T08:35:14;202.45;;;148.05;;
2680;SDS011;1350;42.134;24.708;2022-11-18T08:37:41;62.72;;;35.38;;
2680;SDS011;1350;42.134;24.708;2022-11-18T08:40:08;62.00;;;35.35;;
2680;SDS011;1350;42.134;24.708;2022-11-18T08:42:37;71.13;;;39.60;;
2680;SDS011;1350;42.134;24.708;2022-11-18T08:45:04;65.72;;;42.88;;
2680;SDS011;1350;42.134;24.708;2022-11-18T08:47:32;58.03;;;31.02;;
2680;SDS011;1350;42.134;24.708;2022-11-18T08:49:59;53.33;;;33.05;;
2680;SDS011;1350;42.134;24.708;2022-11-18T08:52:25;59.80;;;33.20;;
2680;SDS011;1350;42.134;24.708;2022-11-18T08:54:52;48.50;;;31.65;;
2680;SDS011;1350;42.134;24.708;2022-11-18T08:57:19;53.83;;;33.83;;
2680;SDS011;1350;42.134;24.708;2022-11-18T08:59:47;48.47;;;30.65;;
2680;SDS011;1350;42.134;24.708;2022-11-18T09:02:16;57.40;;;31.40;;
2680;SDS011;1350;42.134;24.708;2022-11-18T09:04:45;51.60;;;28.35;;
2680;SDS011;1350;42.134;24.708;2022-11-18T09:07:12;51.30;;;31.33;;
2680;SDS011;1350;42.134;24.708;2022-11-18T09:09:39;81.97;;;35.05;;
2680;SDS011;1350;42.134;24.708;2022-11-18T09:12:06;52.35;;;32.08;;
2680;SDS011;1350;42.134;24.708;2022-11-18T09:14:33;62.83;;;34.28;;
2680;SDS011;1350;42.134;24.708;2022-11-18T09:17:01;58.58;;;31.70;;
2680;SDS011;1350;42.134;24.708;2022-11-18T09:19:28;82.05;;;35.75;;
2680;SDS011;1350;42.134;24.708;2022-11-18T09:21:55;60.97;;;34.15;;
2680;SDS011;1350;42.134;24.708;2022-11-18T09:24:22;62.08;;;36.45;;
2680;SDS011;1350;42.134;24.708;2022-11-18T09:26:48;69.03;;;38.03;;
2680;SDS011;1350;42.134;24.708;2022-11-18T09:29:17;62.92;;;35.42;;
2680;SDS011;1350;42.134;24.708;2022-11-18T09:31:49;86.63;;;42.85;;
2680;SDS011;1350;42.134;24.708;2022-11-18T09:34:17;76.00;;;45.85;;
2680;SDS011;1350;42.134;24.708;2022-11-18T09:36:44;71.07;;;41.03;;
2680;SDS011;1350;42.134;24.708;2022-11-18T09:39:11;79.30;;;41.22;;
2680;SDS011;1350;42.134;24.708;2022-11-18T09:41:43;75.35;;;43.10;;
2680;SDS011;1350;42.134;24.708;2022-11-18T09:47:13;159.75;;;104.32;;
2680;SDS011;1350;42.134;24.708;2022-11-18T09:49:51;78.65;;;44.30;;
2680;SDS011;1350;42.134;24.708;2022-11-18T09:52:22;93.13;;;43.78;;
2680;SDS011;1350;42.134;24.708;2022-11-18T09:54:52;82.00;;;45.67;;
2680;SDS011;1350;42.134;24.708;2022-11-18T09:57:20;81.50;;;47.80;;
2680;SDS011;1350;42.134;24.708;2022-11-18T09:59:49;82.75;;;45.97;;
2680;SDS011;1350;42.134;24.708;2022-11-18T10:02:27;85.97;;;46.90;;
2680;SDS011;1350;42.134;24.708;2022-11-18T10:05:11;92.20;;;47.35;;
2680;SDS011;1350;42.134;24.708;2022-11-18T10:07:41;91.25;;;49.65;;
2680;SDS011;1350;42.134;24.708;2022-11-18T10:10:14;84.95;;;49.17;;
2680;SDS011;1350;42.134;24.708;2022-11-18T10:12:48;90.22;;;49.78;;
2680;SDS011;1350;42.134;24.708;2022-11-18T10:15:22;104.93;;;50.95;;
2680;SDS011;1350;42.134;24.708;2022-11-18T10:17:57;88.53;;;46.38;;
2680;SDS011;1350;42.134;24.708;2022-11-18T10:20:35;89.25;;;51.00;;
2680;SDS011;1350;42.134;24.708;2022-11-18T10:23:11;82.38;;;47.63;;
2680;SDS011;1350;42.134;24.708;2022-11-18T10:25:42;94.50;;;54.00;;
2680;SDS011;1350;42.134;24.708;2022-11-18T10:28:16;86.80;;;47.00;;
2680;SDS011;1350;42.134;24.708;2022-11-18T10:30:46;95.15;;;51.67;;
2680;SDS011;1350;42.134;24.708;2022-11-18T10:33:26;87.15;;;51.00;;
2680;SDS011;1350;42.134;24.708;2022-11-18T10:36:08;88.88;;;49.05;;
2680;SDS011;1350;42.134;24.708;2022-11-18T10:38:37;85.57;;;47.80;;
2680;SDS011;1350;42.134;24.708;2022-11-18T10:41:04;80.82;;;44.90;;
2680;SDS011;1350;42.134;24.708;2022-11-18T10:43:44;85.75;;;47.78;;
2680;SDS011;1350;42.134;24.708;2022-11-18T10:46:17;77.43;;;44.65;;
2680;SDS011;1350;42.134;24.708;2022-11-18T10:49:00;78.35;;;45.08;;
2680;SDS011;1350;42.134;24.708;2022-11-18T10:51:39;93.10;;;49.33;;
2680;SDS011;1350;42.134;24.708;2022-11-18T10:54:08;124.03;;;52.20;;
2680;SDS011;1350;42.134;24.708;2022-11-18T10:56:44;88.20;;;51.90;;
2680;SDS011;1350;42.134;24.708;2022-11-18T10:59:16;88.72;;;43.47;;
2680;SDS011;1350;42.134;24.708;2022-11-18T11:01:57;104.90;;;55.00;;
2680;SDS011;1350;42.134;24.708;2022-11-18T11:04:26;94.90;;;49.20;;
2680;SDS011;1350;42.134;24.708;2022-11-18T11:06:56;108.80;;;53.88;;
2680;SDS011;1350;42.134;24.708;2022-11-18T11:09:28;95.97;;;52.15;;
2680;SDS011;1350;42.134;24.708;2022-11-18T11:11:59;99.20;;;54.03;;
2680;SDS011;1350;42.134;24.708;2022-11-18T11:14:33;105.10;;;56.17;;
2680;SDS011;1350;42.134;24.708;2022-11-18T11:17:04;127.85;;;62.20;;
2680;SDS011;1350;42.134;24.708;2022-11-18T11:19:40;107.03;;;60.65;;
2680;SDS011;1350;42.134;24.708;2022-11-18T11:22:14;124.55;;;64.32;;
2680;SDS011;1350;42.134;24.708;2022-11-18T11:24:42;133.85;;;66.60;;
2680;SDS011;1350;42.134;24.708;2022-11-18T11:27:14;152.57;;;88.30;;
2680;SDS011;1350;42.134;24.708;2022-11-18T11:29:59;157.85;;;75.88;;
2680;SDS011;1350;42.134;24.708;2022-11-18T11:32:33;127.18;;;66.38;;
2680;SDS011;1350;42.134;24.708;2022-11-18T11:35:09;116.55;;;66.18;;
2680;SDS011;1350;42.134;24.708;2022-11-18T11:37:45;129.45;;;66.95;;
2680;SDS011;1350;42.134;24.708;2022-11-18T11:40:22;137.55;;;64.00;;
2680;SDS011;1350;42.134;24.708;2022-11-18T11:42:57;112.50;;;57.47;;
2680;SDS011;1350;42.134;24.708;2022-11-18T11:45:32;132.07;;;61.50;;
2680;SDS011;1350;42.134;24.708;2022-11-18T11:48:15;112.22;;;59.88;;
2680;SDS011;1350;42.134;24.708;2022-11-18T11:50:55;118.93;;;58.47;;
2680;SDS011;1350;42.134;24.708;2022-11-18T11:53:38;120.72;;;61.90;;
2680;SDS011;1350;42.134;24.708;2022-11-18T11:56:24;116.07;;;61.53;;
2680;SDS011;1350;42.134;24.708;2022-11-18T11:58:59;123.57;;;61.33;;
2680;SDS011;1350;42.134;24.708;2022-11-18T12:01:45;124.18;;;63.75;;
2680;SDS011;1350;42.134;24.708;2022-11-18T12:04:27;116.45;;;63.38;;
2680;SDS011;1350;42.134;24.708;2022-11-18T12:07:00;116.20;;;63.25;;
2680;SDS011;1350;42.134;24.708;2022-11-18T12:09:32;111.07;;;64.55;;
2680;SDS011;1350;42.134;24.708;2022-11-18T12:12:10;108.72;;;61.05;;
2680;SDS011;1350;42.134;24.708;2022-11-18T12:15:02;112.97;;;60.78;;
2680;SDS011;1350;42.134;24.708;2022-11-18T12:17:44;120.43;;;62.55;;
2680;SDS011;1350;42.134;24.708;2022-11-18T12:23:07;99.50;;;54.75;;
2680;SDS011;1350;42.134;24.708;2022-11-18T12:25:53;107.90;;;56.25;;
2680;SDS011;1350;42.134;24.708;2022-11-18T12:28:31;101.35;;;56.38;;
2680;SDS011;1350;42.134;24.708;2022-11-18T13:17:25;138.95;;;85.97;;
2680;SDS011;1350;42.134;24.708;2022-11-18T13:20:19;105.38;;;60.17;;
2680;SDS011;1350;42.134;24.708;2022-11-18T13:22:50;106.13;;;59.45;;
2680;SDS011;1350;42.134;24.708;2022-11-18T13:25:35;100.03;;;61.17;;
2680;SDS011;1350;42.134;24.708;2022-11-18T13:28:04;109.93;;;56.42;;
2680;SDS011;1350;42.134;24.708;2022-11-18T13:30:37;106.63;;;61.03;;
2680;SDS011;1350;42.134;24.708;2022-11-18T13:33:13;96.68;;;56.90;;
2680;SDS011;1350;42.134;24.708;2022-11-18T13:35:40;109.20;;;56.70;;
2680;SDS011;1350;42.134;24.708;2022-11-18T13:38:15;97.60;;;56.92;;
2680;SDS011;1350;42.134;24.708;2022-11-18T13:40:46;103.70;;;53.90;;
2680;SDS011;1350;42.134;24.708;2022-11-18T13:43:28;93.18;;;55.97;;
2680;SDS011;1350;42.134;24.708;2022-11-18T13:45:55;96.35;;;55.15;;
2680;SDS011;1350;42.134;24.708;2022-11-18T13:48:23;93.63;;;54.05;;
2680;SDS011;1350;42.134;24.708;2022-11-18T13:50:51;114.55;;;57.60;;
2680;SDS011;1350;42.134;24.708;2022-11-18T13:53:25;113.13;;;59.33;;
2680;SDS011;1350;42.134;24.708;2022-11-18T13:55:55;118.15;;;58.42;;
2680;SDS011;1350;42.134;24.708;2022-11-18T13:58:33;134.68;;;61.03;;
2680;SDS011;1350;42.134;24.708;2022-11-18T14:01:04;126.22;;;61.28;;
2680;SDS011;1350;42.134;24.708;2022-11-18T14:03:45;127.90;;;64.95;;
2680;SDS011;1350;42.134;24.708;2022-11-18T14:06:28;147.50;;;67.43;;
2680;SDS011;1350;42.134;24.708;2022-11-18T14:09:03;135.70;;;62.55;;
2680;SDS011;1350;42.134;24.708;2022-11-18T14:11:35;132.63;;;63.67;;
2680;SDS011;1350;42.134;24.708;2022-11-18T14:14:03;132.75;;;59.88;;
2680;SDS011;1350;42.134;24.708;2022-11-18T14:16:32;129.98;;;62.65;;
2680;SDS011;1350;42.134;24.708;2022-11-18T14:19:01;158.32;;;64.28;;
2680;SDS011;1350;42.134;24.708;2022-11-18T14:21:29;165.30;;;68.80;;
2680;SDS011;1350;42.134;24.708;2022-11-18T14:23:57;156.05;;;62.83;;
2680;SDS011;1350;42.134;24.708;2022-11-18T14:26:28;164.98;;;68.28;;
2680;SDS011;1350;42.134;24.708;2022-11-18T14:28:56;140.88;;;62.80;;
2680;SDS011;1350;42.134;24.708;2022-11-18T14:31:25;153.18;;;68.07;;
2680;SDS011;1350;42.134;24.708;2022-11-18T14:36:49;129.57;;;59.42;;
2680;SDS011;1350;42.134;24.708;2022-11-18T14:39:19;135.77;;;62.10;;
2680;SDS011;1350;42.134;24.708;2022-11-18T14:41:49;134.18;;;58.10;;
2680;SDS011;1350;42.134;24.708;2022-11-18T14:44:16;109.53;;;54.75;;
2680;SDS011;1350;42.134;24.708;2022-11-18T14:46:45;114.38;;;57.28;;
2680;SDS011;1350;42.134;24.708;2022-11-18T14:49:15;124.25;;;53.60;;
2680;SDS011;1350;42.134;24.708;2022-11-18T14:51:45;134.73;;;55.72;;
2680;SDS011;1350;42.134;24.708;2022-11-18T14:54:13;107.00;;;53.90;;
2680;SDS011;1350;42.134;24.708;2022-11-18T14:56:40;103.30;;;51.45;;
2680;SDS011;1350;42.134;24.708;2022-11-18T14:59:09;113.88;;;52.92;;
2680;SDS011;1350;42.134;24.708;2022-11-18T15:01:37;102.53;;;50.85;;
2680;SDS011;1350;42.134;24.708;2022-11-18T15:04:04;100.55;;;50.88;;
2680;SDS011;1350;42.134;24.708;2022-11-18T15:06:32;97.93;;;51.83;;
2680;SDS011;1350;42.134;24.708;2022-11-18T15:08:59;106.18;;;50.17;;
2680;SDS011;1350;42.134;24.708;2022-11-18T15:11:26;101.53;;;50.00;;
2680;SDS011;1350;42.134;24.708;2022-11-18T15:13:53;104.18;;;52.42;;
2680;SDS011;1350;42.134;24.708;2022-11-18T15:16:21;115.82;;;52.15;;
2680;SDS011;1350;42.134;24.708;2022-11-18T15:18:50;104.82;;;51.30;;
2680;SDS011;1350;42.134;24.708;2022-11-18T15:21:18;118.30;;;52.53;;
2680;SDS011;1350;42.134;24.708;2022-11-18T15:23:47;117.72;;;54.45;;
2680;SDS011;1350;42.134;24.708;2022-11-18T15:26:15;99.90;;;51.33;;
2680;SDS011;1350;42.134;24.708;2022-11-18T15:28:44;106.95;;;50.17;;
2680;SDS011;1350;42.134;24.708;2022-11-18T15:31:11;109.25;;;52.40;;
2680;SDS011;1350;42.134;24.708;2022-11-18T15:33:38;89.80;;;49.78;;
2680;SDS011;1350;42.134;24.708;2022-11-18T15:36:08;114.85;;;54.50;;
2680;SDS011;1350;42.134;24.708;2022-11-18T15:38:37;114.07;;;52.88;;
2680;SDS011;1350;42.134;24.708;2022-11-18T15:41:05;92.65;;;50.60;;
2680;SDS011;1350;42.134;24.708;2022-11-18T15:43:33;112.15;;;49.97;;
2680;SDS011;1350;42.134;24.708;2022-11-18T15:45:59;91.35;;;48.58;;
2680;SDS011;1350;42.134;24.708;2022-11-18T15:48:26;90.40;;;49.85;;
2680;SDS011;1350;42.134;24.708;2022-11-18T15:50:53;105.00;;;52.67;;